Time;durP1;ratioP1;P1;durP2;ratioP2;P2;SDS_P1;SDS_P2;PMS_P1;PMS_P2;Temp;Humidity;BMP_temperature;BMP_pressure;BME280_temperature;BME280_humidity;BME280_pressure;Samples;Min_cycle;Max_cycle;Signal;HPM_P1;HPM_P2
2021/08/07 00:00:41;;;;;;;3.97;3.58;;;16.50;99.90;;;;;;2057034;28;20074;-75
2021/08/07 00:01:41;;;;;;;4.22;3.80;;;16.50;99.90;;;;;;2057929;28;20029;-76
2021/08/07 00:02:42;;;;;;;3.85;3.55;;;16.50;99.90;;;;;;2057493;28;20489;-75
2021/08/07 00:03:43;;;;;;;5.47;3.85;;;16.50;99.90;;;;;;2057439;28;20038;-77
2021/08/07 00:04:43;;;;;;;5.40;4.10;;;16.50;99.90;;;;;;2057456;28;20035;-77
2021/08/07 00:05:44;;;;;;;4.07;3.63;;;16.40;99.90;;;;;;2057195;28;20026;-76
2021/08/07 00:06:45;;;;;;;4.18;3.60;;;16.40;99.90;;;;;;2057336;28;20026;-75
2021/08/07 00:07:45;;;;;;;4.03;3.70;;;16.40;99.90;;;;;;2057326;28;20027;-75
2021/08/07 00:08:46;;;;;;;4.20;3.72;;;16.40;99.90;;;;;;2057325;28;20069;-75
2021/08/07 00:09:47;;;;;;;3.80;3.50;;;16.40;99.90;;;;;;2057366;28;20023;-76
2021/08/07 00:10:47;;;;;;;3.85;3.50;;;16.40;99.90;;;;;;2056983;28;20544;-75
2021/08/07 00:11:48;;;;;;;3.80;3.35;;;16.30;99.90;;;;;;2057101;28;20066;-76
2021/08/07 00:12:48;;;;;;;3.90;3.50;;;16.30;99.90;;;;;;2057337;28;20042;-74
2021/08/07 00:13:50;;;;;;;5.50;4.20;;;16.30;99.90;;;;;;2057374;28;20033;-73
2021/08/07 00:14:50;;;;;;;4.30;3.90;;;16.30;99.90;;;;;;2057406;28;20041;-73
2021/08/07 00:15:51;;;;;;;4.63;4.22;;;16.30;99.90;;;;;;2058045;28;20050;-75
2021/08/07 00:16:51;;;;;;;5.57;4.05;;;16.30;99.90;;;;;;2057564;28;20034;-74
2021/08/07 00:17:52;;;;;;;4.40;4.00;;;16.20;99.90;;;;;;2057442;28;20045;-74
2021/08/07 00:18:53;;;;;;;4.68;4.05;;;16.20;99.90;;;;;;2057368;28;20042;-75
2021/08/07 00:19:53;;;;;;;4.60;4.20;;;16.20;99.90;;;;;;2057270;28;20050;-75
2021/08/07 00:20:54;;;;;;;4.28;3.88;;;16.20;99.90;;;;;;2056893;28;20045;-75
2021/08/07 00:21:54;;;;;;;4.43;4.03;;;16.20;99.90;;;;;;2049403;29;20015;-75
2021/08/07 00:22:55;;;;;;;5.03;3.88;;;16.20;99.90;;;;;;2057323;28;20043;-74
2021/08/07 00:23:56;;;;;;;5.85;4.60;;;16.20;99.90;;;;;;2065526;28;20032;-76
2021/08/07 00:24:56;;;;;;;4.50;3.97;;;16.20;99.90;;;;;;2057856;28;20038;-76
2021/08/07 00:25:57;;;;;;;4.05;3.67;;;16.20;99.90;;;;;;2056617;28;20057;-76
2021/08/07 00:26:57;;;;;;;5.70;4.00;;;16.10;99.90;;;;;;2056929;28;20029;-75
2021/08/07 00:27:59;;;;;;;4.38;3.97;;;16.10;99.90;;;;;;2057680;28;20022;-74
2021/08/07 00:28:59;;;;;;;5.22;4.32;;;16.10;99.90;;;;;;2057415;28;20027;-76
2021/08/07 00:30:03;;;;;;;6.68;4.88;;;16.10;99.90;;;;;;2057101;28;20478;-73
2021/08/07 00:31:03;;;;;;;5.32;4.18;;;16.10;99.90;;;;;;2057270;28;20026;-75
2021/08/07 00:32:04;;;;;;;8.25;4.30;;;16.10;99.90;;;;;;2057288;28;20022;-74
2021/08/07 00:33:06;;;;;;;5.70;4.75;;;16.10;99.90;;;;;;2057422;28;20085;-74
2021/08/07 00:34:07;;;;;;;6.80;4.45;;;16.10;99.90;;;;;;2057102;28;20111;-76
2021/08/07 00:35:09;;;;;;;5.50;4.97;;;16.00;99.90;;;;;;2040598;29;20122;-76
2021/08/07 00:36:12;;;;;;;6.72;5.05;;;16.10;99.90;;;;;;2041339;28;20543;-75
2021/08/07 00:37:12;;;;;;;5.25;4.75;;;16.00;99.90;;;;;;2056475;28;20035;-75
2021/08/07 00:38:24;;;;;;;5.07;4.57;;;16.00;99.90;;;;;;2056653;28;20121;-76
2021/08/07 00:39:26;;;;;;;5.95;4.82;;;16.00;99.90;;;;;;2058110;28;20031;-74
2021/08/07 00:40:26;;;;;;;5.22;4.60;;;16.00;99.90;;;;;;2055958;28;20041;-76
2021/08/07 00:41:30;;;;;;;5.40;4.90;;;16.00;99.90;;;;;;2048643;28;20441;-74
2021/08/07 00:42:33;;;;;;;5.63;5.03;;;15.90;99.90;;;;;;2056745;28;20118;-74
2021/08/07 00:43:36;;;;;;;6.32;4.85;;;15.90;99.90;;;;;;2056298;28;20027;-74
2021/08/07 00:44:43;;;;;;;5.78;4.95;;;15.90;99.90;;;;;;2056500;28;20092;-74
2021/08/07 00:45:47;;;;;;;5.45;4.93;;;15.90;99.90;;;;;;2056740;28;20474;-74
2021/08/07 00:46:54;;;;;;;5.57;4.70;;;15.90;99.90;;;;;;2055831;28;20042;-74
2021/08/07 00:47:54;;;;;;;6.68;4.97;;;15.90;99.90;;;;;;2056513;28;20058;-74
2021/08/07 00:48:56;;;;;;;5.18;4.68;;;15.90;99.90;;;;;;2056333;28;20042;-73
2021/08/07 00:49:58;;;;;;;5.07;4.32;;;15.90;99.90;;;;;;2056523;28;20023;-74
2021/08/07 00:51:00;;;;;;;6.72;4.88;;;15.90;99.90;;;;;;2055710;28;20026;-73
2021/08/07 00:52:02;;;;;;;4.68;4.20;;;15.90;99.90;;;;;;2056567;28;20131;-74
2021/08/07 00:53:04;;;;;;;4.82;4.30;;;15.90;99.90;;;;;;2064391;28;20041;-74
2021/08/07 00:54:04;;;;;;;8.20;4.15;;;15.80;99.90;;;;;;2056360;28;20054;-74
2021/08/07 00:55:06;;;;;;;4.05;3.70;;;15.80;99.90;;;;;;2056413;28;20801;-74
2021/08/07 00:56:08;;;;;;;4.43;4.03;;;15.80;99.90;;;;;;2056281;28;20050;-75
2021/08/07 00:57:19;;;;;;;4.35;3.95;;;15.80;99.90;;;;;;2051285;28;20038;-75
2021/08/07 00:58:19;;;;;;;4.85;3.80;;;15.80;99.90;;;;;;2064994;28;20026;-74
2021/08/07 00:59:24;;;;;;;6.00;3.70;;;15.80;99.90;;;;;;2056746;28;20117;-74
2021/08/07 01:00:26;;;;;;;5.75;3.85;;;15.80;99.90;;;;;;2056729;28;20027;-75
2021/08/07 01:01:38;;;;;;;4.10;3.70;;;15.80;99.90;;;;;;2056703;28;20876;-73
2021/08/07 01:02:47;;;;;;;4.15;3.63;;;15.80;99.90;;;;;;2058300;28;20027;-77
2021/08/07 01:03:52;;;;;;;4.05;3.65;;;15.80;99.90;;;;;;2056241;28;20031;-73
2021/08/07 01:05:17;;;;;;;;;;;15.80;99.90;;;;;;2049436;28;20501;-74
2021/08/07 01:06:38;;;;;;;;;;;15.80;99.90;;;;;;2055320;28;19914;-75
2021/08/07 01:07:57;;;;;;;4.28;3.88;;;15.70;99.90;;;;;;2056803;28;19906;-75
2021/08/07 01:09:15;;;;;;;4.00;3.60;;;15.70;99.90;;;;;;2043319;29;20023;-74
2021/08/07 01:11:03;;;;;;;4.57;3.75;;;15.70;99.90;;;;;;2045652;28;20046;-75
2021/08/07 01:12:16;;;;;;;5.45;3.88;;;15.70;99.90;;;;;;2046786;29;20043;-75
2021/08/07 01:13:46;;;;;;;5.22;3.70;;;15.70;99.90;;;;;;2057078;28;20027;-76
2021/08/07 01:14:50;;;;;;;3.80;3.45;;;15.60;99.90;;;;;;2056140;28;20038;-75
2021/08/07 01:16:03;;;;;;;4.35;3.65;;;15.70;99.90;;;;;;2049279;28;20031;-75
2021/08/07 01:17:13;;;;;;;4.22;3.83;;;15.60;99.90;;;;;;2049691;28;20633;-76
2021/08/07 01:18:20;;;;;;;3.78;3.47;;;15.60;99.90;;;;;;2049057;28;20135;-76
2021/08/07 01:19:28;;;;;;;3.88;3.47;;;15.60;99.90;;;;;;2055835;28;20043;-75
2021/08/07 01:20:38;;;;;;;3.45;3.15;;;15.60;99.90;;;;;;2056976;28;20292;-74
2021/08/07 01:21:50;;;;;;;4.13;3.60;;;15.60;99.90;;;;;;2056165;28;20029;-76
2021/08/07 01:23:15;;;;;;;3.90;3.47;;;15.60;99.90;;;;;;2058402;28;20023;-74
2021/08/07 01:24:26;;;;;;;4.22;3.50;;;15.60;99.90;;;;;;2056933;28;20394;-75
2021/08/07 01:25:39;;;;;;;3.65;3.35;;;15.60;99.90;;;;;;2049909;28;20514;-74
2021/08/07 01:26:56;;;;;;;4.40;3.83;;;15.60;99.90;;;;;;2057190;28;20034;-75
2021/08/07 01:28:01;;;;;;;4.35;3.58;;;15.60;99.90;;;;;;2056721;28;20022;-75
2021/08/07 01:29:06;;;;;;;5.18;3.63;;;15.60;99.90;;;;;;2049677;28;20023;-74
2021/08/07 01:30:10;;;;;;;4.95;3.55;;;15.50;99.90;;;;;;2049282;28;20114;-74
2021/08/07 01:31:14;;;;;;;5.32;3.55;;;15.50;99.90;;;;;;2057019;28;20062;-74
2021/08/07 01:32:15;;;;;;;4.05;3.72;;;15.50;99.90;;;;;;2064462;28;20037;-74
2021/08/07 01:33:18;;;;;;;3.90;3.50;;;15.50;99.90;;;;;;2056500;28;20031;-75
2021/08/07 01:34:21;;;;;;;3.53;3.22;;;15.50;99.90;;;;;;2056990;28;20041;-73
2021/08/07 01:35:23;;;;;;;5.25;3.70;;;15.50;99.90;;;;;;2056514;28;20031;-74
2021/08/07 01:36:27;;;;;;;5.35;3.50;;;15.50;99.90;;;;;;2056622;28;20073;-74
2021/08/07 01:37:33;;;;;;;4.30;3.72;;;15.50;99.90;;;;;;2049386;28;20035;-74
2021/08/07 01:38:48;;;;;;;4.15;3.50;;;15.50;99.90;;;;;;2058549;28;20024;-74
2021/08/07 01:39:54;;;;;;;4.25;3.25;;;15.50;99.90;;;;;;2056847;28;20500;-74
2021/08/07 01:41:01;;;;;;;3.80;3.50;;;15.50;99.90;;;;;;2049486;28;20027;-74
2021/08/07 01:42:02;;;;;;;4.13;3.38;;;15.40;99.90;;;;;;2048707;28;20023;-76
2021/08/07 01:43:03;;;;;;;4.03;3.67;;;15.40;99.90;;;;;;2048144;29;20514;-76
2021/08/07 01:44:09;;;;;;;4.30;3.63;;;15.40;99.90;;;;;;2042698;28;20199;-76
2021/08/07 01:45:11;;;;;;;4.03;3.60;;;15.50;99.90;;;;;;2043152;28;20513;-76
2021/08/07 01:46:17;;;;;;;5.30;3.97;;;15.40;99.90;;;;;;2050357;28;20433;-75
2021/08/07 01:47:47;;;;;;;3.75;3.42;;;15.40;99.90;;;;;;2051618;28;20031;-76
2021/08/07 01:49:06;;;;;;;15.35;4.30;;;15.40;99.90;;;;;;2053553;28;20034;-76
2021/08/07 01:50:26;;;;;;;3.95;3.55;;;15.40;99.90;;;;;;2050902;28;20074;-75
2021/08/07 01:51:40;;;;;;;4.32;3.80;;;15.30;99.90;;;;;;2056262;28;20050;-76
2021/08/07 01:52:48;;;;;;;4.00;3.60;;;15.40;99.90;;;;;;2056013;28;20042;-76
2021/08/07 01:53:50;;;;;;;4.15;3.58;;;15.30;99.90;;;;;;2048895;28;20062;-76
2021/08/07 01:54:59;;;;;;;4.00;3.50;;;15.30;99.90;;;;;;2048241;28;20094;-76
2021/08/07 01:56:09;;;;;;;4.78;4.00;;;15.40;99.90;;;;;;2056207;28;20102;-76
2021/08/07 01:57:20;;;;;;;4.05;3.65;;;15.30;99.90;;;;;;2056005;28;20037;-74
2021/08/07 01:58:25;;;;;;;4.15;3.75;;;15.40;99.90;;;;;;2057034;28;20101;-75
2021/08/07 01:59:27;;;;;;;4.88;3.80;;;15.30;99.90;;;;;;2056332;28;20044;-74
2021/08/07 02:00:31;;;;;;;4.38;3.80;;;15.30;99.90;;;;;;2056379;28;20079;-74
2021/08/07 02:01:35;;;;;;;4.20;3.80;;;15.30;99.90;;;;;;2056209;28;20035;-74
2021/08/07 02:02:37;;;;;;;5.63;4.10;;;15.30;99.90;;;;;;2048855;28;20375;-74
2021/08/07 02:03:39;;;;;;;4.47;3.85;;;15.30;99.90;;;;;;2048272;29;20029;-74
2021/08/07 02:04:40;;;;;;;5.53;4.05;;;15.30;99.90;;;;;;2048294;28;20062;-75
2021/08/07 02:05:52;;;;;;;5.32;4.25;;;15.30;99.90;;;;;;2049746;28;20024;-74
2021/08/07 02:06:55;;;;;;;4.40;4.00;;;15.30;99.90;;;;;;2048541;28;20101;-74
2021/08/07 02:07:57;;;;;;;4.47;4.07;;;15.20;99.90;;;;;;2049066;28;20030;-75
2021/08/07 02:09:01;;;;;;;4.55;4.10;;;15.20;99.90;;;;;;2056712;28;20035;-75
2021/08/07 02:10:14;;;;;;;4.57;4.05;;;15.20;99.90;;;;;;2062096;28;20019;-74
2021/08/07 02:11:18;;;;;;;4.60;4.20;;;15.20;99.90;;;;;;2048410;28;20430;-75
2021/08/07 02:12:21;;;;;;;5.20;4.20;;;15.20;99.90;;;;;;2048430;28;20398;-75
2021/08/07 02:13:27;;;;;;;4.90;4.10;;;15.20;99.90;;;;;;2049070;28;20126;-75
2021/08/07 02:14:37;;;;;;;5.80;4.53;;;15.20;99.90;;;;;;2049080;28;20050;-74
2021/08/07 02:15:38;;;;;;;5.00;4.47;;;15.20;99.90;;;;;;2048110;28;20106;-75
2021/08/07 02:16:45;;;;;;;4.70;4.30;;;15.20;99.90;;;;;;2048329;28;20033;-75
2021/08/07 02:17:48;;;;;;;4.63;4.22;;;15.20;99.90;;;;;;2048186;28;20062;-75
2021/08/07 02:18:51;;;;;;;4.68;4.28;;;15.10;99.90;;;;;;2056188;28;20406;-74
2021/08/07 02:19:55;;;;;;;5.13;4.63;;;15.10;99.90;;;;;;2055428;28;20121;-75
2021/08/07 02:20:57;;;;;;;5.05;4.55;;;15.10;99.90;;;;;;2047678;28;20554;-75
2021/08/07 02:22:00;;;;;;;6.28;4.70;;;15.10;99.90;;;;;;2040618;29;20035;-74
2021/08/07 02:23:01;;;;;;;6.18;4.82;;;15.10;99.90;;;;;;2040661;28;20020;-74
2021/08/07 02:24:03;;;;;;;5.18;4.63;;;15.10;99.90;;;;;;2048068;28;20035;-75
2021/08/07 02:25:05;;;;;;;5.07;4.57;;;15.10;99.90;;;;;;2048037;28;20035;-75
2021/08/07 02:26:21;;;;;;;5.80;5.20;;;15.10;99.90;;;;;;2049442;28;20550;-75
2021/08/07 02:27:31;;;;;;;5.28;4.78;;;15.10;99.90;;;;;;2057456;28;20033;-74
2021/08/07 02:28:32;;;;;;;5.82;4.95;;;15.10;99.90;;;;;;2047797;28;20027;-74
2021/08/07 02:29:39;;;;;;;5.78;4.63;;;15.10;99.90;;;;;;2041566;28;20090;-75
2021/08/07 02:30:44;;;;;;;6.60;4.85;;;15.10;99.90;;;;;;2055687;28;20038;-75
2021/08/07 02:31:47;;;;;;;5.47;4.40;;;15.10;99.90;;;;;;2055621;28;20494;-75
2021/08/07 02:32:48;;;;;;;5.20;4.53;;;15.10;99.90;;;;;;2055970;28;20027;-75
2021/08/07 02:33:53;;;;;;;4.97;4.45;;;15.10;99.90;;;;;;2055886;28;20050;-74
2021/08/07 02:34:54;;;;;;;4.85;4.45;;;15.00;99.90;;;;;;2056057;28;20037;-74
2021/08/07 02:36:02;;;;;;;5.32;4.78;;;15.10;99.90;;;;;;2049216;28;20094;-75
2021/08/07 02:37:04;;;;;;;5.00;4.50;;;15.00;99.90;;;;;;2048033;28;20034;-74
2021/08/07 02:38:09;;;;;;;4.97;4.50;;;15.10;99.90;;;;;;2056825;28;20573;-75
2021/08/07 02:39:10;;;;;;;5.25;4.72;;;15.00;99.90;;;;;;2056200;28;20114;-74
2021/08/07 02:40:12;;;;;;;5.05;4.60;;;15.00;99.90;;;;;;2040092;29;20023;-75
2021/08/07 02:41:22;;;;;;;5.25;4.75;;;15.00;99.90;;;;;;2050467;28;20039;-75
2021/08/07 02:42:24;;;;;;;5.32;4.80;;;15.00;99.90;;;;;;2056552;28;20111;-75
2021/08/07 02:43:26;;;;;;;5.63;4.47;;;15.00;99.90;;;;;;2048463;28;20542;-75
2021/08/07 02:44:27;;;;;;;5.13;4.60;;;15.00;99.90;;;;;;2048716;28;20023;-74
2021/08/07 02:45:29;;;;;;;4.82;4.35;;;15.00;99.90;;;;;;2056619;28;20104;-75
2021/08/07 02:46:31;;;;;;;4.97;4.57;;;15.00;99.90;;;;;;2056844;28;20145;-75
2021/08/07 02:47:36;;;;;;;5.15;4.50;;;15.00;99.90;;;;;;2056389;28;20082;-75
2021/08/07 02:48:40;;;;;;;4.80;4.40;;;15.00;99.90;;;;;;2056682;28;20030;-74
2021/08/07 02:49:41;;;;;;;4.95;4.45;;;15.00;99.90;;;;;;2063818;28;20022;-74
2021/08/07 02:50:43;;;;;;;4.53;4.13;;;15.00;99.90;;;;;;2056264;28;20535;-74
2021/08/07 02:51:48;;;;;;;5.93;4.03;;;15.00;99.90;;;;;;2055863;28;20121;-74
2021/08/07 02:52:49;;;;;;;4.80;3.90;;;14.90;99.90;;;;;;2048817;28;20130;-74
2021/08/07 02:53:53;;;;;;;4.95;4.43;;;14.90;99.90;;;;;;2048920;28;20031;-74
2021/08/07 02:54:56;;;;;;;4.60;3.92;;;15.00;99.90;;;;;;2048425;28;20138;-75
2021/08/07 02:55:57;;;;;;;5.32;4.18;;;15.00;99.90;;;;;;2050839;28;20035;-74
2021/08/07 02:57:01;;;;;;;5.22;4.03;;;14.90;99.90;;;;;;2051139;28;20533;-74
2021/08/07 02:58:04;;;;;;;5.05;3.88;;;14.90;99.90;;;;;;2042294;29;20574;-74
2021/08/07 02:59:08;;;;;;;5.03;4.18;;;14.90;99.90;;;;;;2050192;28;20027;-74
2021/08/07 03:00:14;;;;;;;4.40;3.97;;;14.90;99.90;;;;;;2057950;28;20379;-74
2021/08/07 03:01:15;;;;;;;4.50;3.95;;;14.90;99.90;;;;;;2055705;28;20042;-75
2021/08/07 03:02:21;;;;;;;4.53;3.90;;;14.90;99.90;;;;;;2048417;28;20035;-75
2021/08/07 03:03:24;;;;;;;4.38;3.72;;;14.90;99.90;;;;;;2048101;28;20024;-75
2021/08/07 03:04:26;;;;;;;5.18;3.90;;;14.80;99.90;;;;;;2047794;28;20078;-74
2021/08/07 03:05:30;;;;;;;5.45;4.20;;;14.90;99.90;;;;;;2040019;28;20454;-74
2021/08/07 03:06:34;;;;;;;5.40;3.92;;;14.80;99.90;;;;;;2040442;29;20038;-75
2021/08/07 03:07:38;;;;;;;4.72;3.92;;;14.90;99.90;;;;;;2048231;28;20027;-75
2021/08/07 03:08:40;;;;;;;4.65;4.00;;;14.80;99.90;;;;;;2047786;28;20037;-75
2021/08/07 03:09:43;;;;;;;5.38;4.00;;;14.80;99.90;;;;;;2055918;28;20809;-74
2021/08/07 03:10:46;;;;;;;4.45;4.05;;;14.80;99.90;;;;;;2055274;28;20425;-74
2021/08/07 03:11:52;;;;;;;4.45;4.05;;;14.80;99.90;;;;;;2040508;29;20028;-74
2021/08/07 03:12:57;;;;;;;4.40;4.00;;;14.80;99.90;;;;;;2041377;28;20439;-74
2021/08/07 03:14:01;;;;;;;4.85;3.90;;;14.80;99.90;;;;;;2048290;28;20106;-73
2021/08/07 03:15:07;;;;;;;4.68;3.90;;;14.80;99.90;;;;;;2056279;28;20031;-75
2021/08/07 03:16:08;;;;;;;4.57;3.83;;;14.80;99.90;;;;;;2047473;29;20113;-74
2021/08/07 03:17:14;;;;;;;4.25;3.85;;;14.80;99.90;;;;;;2048545;28;20122;-75
2021/08/07 03:18:17;;;;;;;4.68;4.15;;;14.80;99.90;;;;;;2047938;28;20058;-75
2021/08/07 03:19:18;;;;;;;4.95;4.30;;;14.80;99.90;;;;;;2047769;29;20030;-75
2021/08/07 03:20:31;;;;;;;5.25;4.03;;;14.80;99.90;;;;;;2047961;28;20027;-74
2021/08/07 03:21:35;;;;;;;4.60;4.10;;;14.80;99.90;;;;;;2049224;28;20034;-75
2021/08/07 03:22:39;;;;;;;4.65;4.15;;;14.80;99.90;;;;;;2048457;28;20035;-75
2021/08/07 03:23:39;;;;;;;5.70;4.43;;;14.80;99.90;;;;;;2047741;29;20042;-75
2021/08/07 03:24:41;;;;;;;5.68;4.10;;;14.80;99.90;;;;;;2055583;28;20023;-75
2021/08/07 03:25:41;;;;;;;4.28;3.88;;;14.70;99.90;;;;;;2055584;28;20119;-75
2021/08/07 03:26:48;;;;;;;6.32;3.83;;;14.70;99.90;;;;;;2055910;28;20027;-75
2021/08/07 03:27:52;;;;;;;4.30;3.90;;;14.80;99.90;;;;;;2057049;28;20027;-75
2021/08/07 03:28:53;;;;;;;4.25;3.85;;;14.80;99.90;;;;;;2057235;28;20034;-75
2021/08/07 03:29:57;;;;;;;4.45;4.00;;;14.70;99.90;;;;;;2057197;28;20027;-76
2021/08/07 03:30:59;;;;;;;4.57;4.18;;;14.70;99.90;;;;;;2056937;28;20030;-75
2021/08/07 03:32:05;;;;;;;4.30;3.90;;;14.80;99.90;;;;;;2057168;28;20033;-76
2021/08/07 03:33:15;;;;;;;4.57;4.03;;;14.70;99.90;;;;;;2050659;28;20032;-75
2021/08/07 03:34:16;;;;;;;4.13;3.80;;;14.70;99.90;;;;;;2048770;28;20121;-76
2021/08/07 03:35:18;;;;;;;4.70;4.25;;;14.70;99.90;;;;;;2049185;28;20094;-76
2021/08/07 03:36:20;;;;;;;5.13;4.43;;;14.70;99.90;;;;;;2057470;28;20090;-76
2021/08/07 03:37:27;;;;;;;4.82;4.20;;;14.70;99.90;;;;;;2057094;28;20077;-75
2021/08/07 03:38:34;;;;;;;4.93;4.30;;;14.70;99.90;;;;;;2056971;28;20045;-76
2021/08/07 03:39:35;;;;;;;6.88;4.70;;;14.70;99.90;;;;;;2057149;28;20876;-76
2021/08/07 03:40:36;;;;;;;4.65;4.07;;;14.70;99.90;;;;;;2056713;28;20105;-76
2021/08/07 03:41:43;;;;;;;4.90;4.47;;;14.70;99.90;;;;;;2058526;28;20380;-76
2021/08/07 03:42:45;;;;;;;4.50;4.10;;;14.70;99.90;;;;;;2059839;28;20035;-76
2021/08/07 03:43:51;;;;;;;4.70;4.30;;;14.70;99.90;;;;;;2059786;28;20090;-76
2021/08/07 03:44:55;;;;;;;5.00;4.22;;;14.70;99.90;;;;;;2058826;28;20524;-75
2021/08/07 03:45:56;;;;;;;5.55;4.30;;;14.70;99.90;;;;;;2058005;28;20030;-75
2021/08/07 03:46:59;;;;;;;4.10;3.80;;;14.70;99.90;;;;;;2050243;28;20030;-76
2021/08/07 03:48:01;;;;;;;4.25;3.85;;;14.70;99.90;;;;;;2049463;28;20185;-76
2021/08/07 03:49:11;;;;;;;5.20;4.32;;;14.70;99.90;;;;;;2058865;28;20034;-76
2021/08/07 03:50:18;;;;;;;4.22;3.83;;;14.70;99.90;;;;;;2057084;28;20054;-76
2021/08/07 03:51:19;;;;;;;4.40;4.00;;;14.70;99.90;;;;;;2056802;28;20027;-75
2021/08/07 03:52:21;;;;;;;7.13;4.40;;;14.70;99.90;;;;;;2056950;28;20472;-76
2021/08/07 03:53:24;;;;;;;4.80;3.90;;;14.70;99.90;;;;;;2057009;28;20031;-76
2021/08/07 03:54:28;;;;;;;4.68;4.05;;;14.70;99.90;;;;;;2056955;28;20167;-75
2021/08/07 03:55:32;;;;;;;5.22;4.43;;;14.70;99.90;;;;;;2057851;28;20026;-76
2021/08/07 03:56:35;;;;;;;4.32;3.92;;;14.70;99.90;;;;;;2056647;28;20031;-75
2021/08/07 03:57:50;;;;;;;4.53;4.13;;;14.70;99.90;;;;;;2050107;28;20031;-76
2021/08/07 03:58:56;;;;;;;4.53;4.07;;;14.70;99.90;;;;;;2056828;28;20031;-76
2021/08/07 03:59:59;;;;;;;4.45;4.05;;;14.70;99.90;;;;;;2057104;28;20026;-76
2021/08/07 04:01:00;;;;;;;5.28;4.00;;;14.70;99.90;;;;;;2056422;28;20027;-76
2021/08/07 04:02:04;;;;;;;5.70;3.88;;;14.70;99.90;;;;;;2049135;28;20119;-76
2021/08/07 04:03:05;;;;;;;4.55;3.88;;;14.70;99.90;;;;;;2048906;28;20039;-76
2021/08/07 04:04:06;;;;;;;5.38;4.03;;;14.70;99.90;;;;;;2056915;28;20516;-76
2021/08/07 04:05:13;;;;;;;5.47;4.30;;;14.70;99.90;;;;;;2056847;28;20118;-75
2021/08/07 04:06:14;;;;;;;4.50;4.10;;;14.80;99.90;;;;;;2057693;28;20042;-76
2021/08/07 04:07:14;;;;;;;4.35;3.95;;;14.80;99.90;;;;;;2048813;29;20411;-76
2021/08/07 04:08:21;;;;;;;4.45;4.05;;;14.80;99.90;;;;;;2057528;28;20536;-76
2021/08/07 04:09:22;;;;;;;4.55;4.15;;;14.80;99.90;;;;;;2056790;28;20146;-75
2021/08/07 04:10:24;;;;;;;5.85;4.55;;;14.80;99.90;;;;;;2048790;28;20038;-75
2021/08/07 04:11:26;;;;;;;4.53;4.10;;;14.80;99.90;;;;;;2048670;28;20580;-76
2021/08/07 04:12:33;;;;;;;4.35;3.95;;;14.80;99.90;;;;;;2049621;28;20042;-76
2021/08/07 04:13:33;;;;;;;4.85;3.72;;;14.80;99.90;;;;;;2049556;28;20081;-76
2021/08/07 04:14:38;;;;;;;4.40;3.95;;;14.80;99.90;;;;;;2048965;28;20032;-75
2021/08/07 04:15:39;;;;;;;4.50;3.92;;;14.80;99.90;;;;;;2049050;28;20494;-76
2021/08/07 04:16:42;;;;;;;5.35;3.90;;;14.90;99.90;;;;;;2049172;28;20027;-76
2021/08/07 04:17:51;;;;;;;4.90;3.97;;;14.90;99.90;;;;;;2057940;28;20030;-76
2021/08/07 04:18:52;;;;;;;5.00;3.83;;;14.90;99.90;;;;;;2056969;28;20462;-76
2021/08/07 04:19:55;;;;;;;4.35;3.90;;;14.90;99.90;;;;;;2056845;28;20038;-75
2021/08/07 04:21:00;;;;;;;4.45;3.80;;;14.90;99.90;;;;;;2048813;28;20517;-76
2021/08/07 04:22:01;;;;;;;5.03;3.60;;;15.00;99.90;;;;;;2048691;29;20054;-75
2021/08/07 04:23:05;;;;;;;3.90;3.60;;;15.00;99.90;;;;;;2048886;28;20108;-76
2021/08/07 04:24:09;;;;;;;4.60;4.00;;;15.00;99.90;;;;;;2049149;28;20035;-75
2021/08/07 04:25:12;;;;;;;4.40;3.92;;;15.00;99.90;;;;;;2056733;28;20504;-76
2021/08/07 04:26:15;;;;;;;3.67;3.38;;;15.10;99.90;;;;;;2056723;28;20500;-76
2021/08/07 04:27:20;;;;;;;4.30;3.60;;;15.00;99.90;;;;;;2040802;29;20015;-75
2021/08/07 04:28:22;;;;;;;5.43;3.70;;;15.10;99.90;;;;;;2041952;28;20510;-76
2021/08/07 04:29:26;;;;;;;4.15;3.80;;;15.20;99.90;;;;;;2057589;28;20099;-75
2021/08/07 04:30:30;;;;;;;4.10;3.30;;;15.40;99.90;;;;;;2064725;28;20037;-75
2021/08/07 04:31:33;;;;;;;3.50;3.20;;;15.70;99.90;;;;;;2057170;28;20038;-76
2021/08/07 04:32:35;;;;;;;4.15;3.20;;;16.00;99.90;;;;;;2049283;28;20050;-76
2021/08/07 04:33:40;;;;;;;3.20;2.90;;;16.40;99.90;;;;;;2042012;28;20031;-77
2021/08/07 04:34:44;;;;;;;3.70;3.00;;;16.80;99.90;;;;;;2042835;28;20086;-76
2021/08/07 04:35:48;;;;;;;3.38;2.70;;;17.10;99.90;;;;;;2049512;28;20505;-77
2021/08/07 04:36:54;;;;;;;3.35;2.78;;;17.40;99.90;;;;;;2057947;28;20042;-76
2021/08/07 04:37:59;;;;;;;2.92;2.50;;;17.80;99.90;;;;;;2057325;28;20030;-76
2021/08/07 04:39:06;;;;;;;3.00;2.60;;;18.10;99.90;;;;;;2057398;28;20018;-77
2021/08/07 04:40:07;;;;;;;3.03;2.40;;;18.50;99.90;;;;;;2057076;28;20069;-77
2021/08/07 04:41:07;;;;;;;5.45;2.80;;;18.70;99.90;;;;;;2048751;28;20069;-77
2021/08/07 04:42:11;;;;;;;2.47;2.25;;;19.00;99.90;;;;;;2049475;28;20054;-76
2021/08/07 04:43:12;;;;;;;3.55;2.38;;;19.20;99.90;;;;;;2057238;28;20019;-76
2021/08/07 04:44:12;;;;;;;2.42;2.20;;;19.40;99.90;;;;;;2057175;28;20070;-76
2021/08/07 04:45:15;;;;;;;3.38;2.30;;;19.60;98.70;;;;;;2049312;28;20114;-77
2021/08/07 04:46:17;;;;;;;4.78;2.40;;;19.80;97.60;;;;;;2049420;28;20415;-79
2021/08/07 04:47:20;;;;;;;2.70;2.20;;;20.00;96.50;;;;;;2049201;28;20028;-76
2021/08/07 04:48:21;;;;;;;3.13;2.20;;;20.10;95.70;;;;;;2057071;28;20059;-76
2021/08/07 04:49:33;;;;;;;2.90;2.20;;;20.30;94.90;;;;;;2057075;28;20022;-73
2021/08/07 04:50:35;;;;;;;2.45;2.25;;;20.50;94.00;;;;;;2048944;28;20059;-77
2021/08/07 04:51:38;;;;;;;3.17;2.40;;;20.60;93.30;;;;;;2057445;28;20437;-76
2021/08/07 04:52:40;;;;;;;3.63;2.20;;;20.80;92.80;;;;;;2056406;28;20129;-75
2021/08/07 04:53:42;;;;;;;3.88;2.40;;;20.90;92.10;;;;;;2049129;28;20118;-74
2021/08/07 04:54:48;;;;;;;2.63;1.92;;;21.00;91.30;;;;;;2065131;28;20096;-75
2021/08/07 04:55:49;;;;;;;2.35;2.10;;;21.10;91.10;;;;;;2056925;28;20031;-74
2021/08/07 04:56:51;;;;;;;2.50;2.08;;;21.20;90.50;;;;;;2049202;28;20075;-75
2021/08/07 04:57:53;;;;;;;2.15;2.00;;;21.30;89.90;;;;;;2049104;28;20110;-75
2021/08/07 04:58:54;;;;;;;2.85;2.20;;;21.40;89.00;;;;;;2048967;28;20039;-75
2021/08/07 05:00:02;;;;;;;2.40;2.20;;;21.50;88.00;;;;;;2057798;28;20521;-74
2021/08/07 05:01:06;;;;;;;2.67;2.05;;;21.60;87.10;;;;;;2056524;28;20675;-74
2021/08/07 05:02:08;;;;;;;5.75;2.20;;;21.70;86.70;;;;;;2057206;28;20031;-74
2021/08/07 05:03:10;;;;;;;2.10;1.90;;;21.80;86.20;;;;;;2056849;28;20106;-75
2021/08/07 05:04:15;;;;;;;2.47;1.90;;;22.00;85.30;;;;;;2056981;28;20037;-74
2021/08/07 05:05:19;;;;;;;2.88;2.00;;;22.10;84.20;;;;;;2049268;28;20027;-74
2021/08/07 05:06:23;;;;;;;3.35;2.20;;;22.20;82.80;;;;;;2041222;29;20034;-74
2021/08/07 05:07:24;;;;;;;2.42;2.00;;;22.30;81.40;;;;;;2041370;28;20055;-74
2021/08/07 05:08:26;;;;;;;2.55;1.80;;;22.40;80.90;;;;;;2048940;28;20398;-74
2021/08/07 05:09:30;;;;;;;3.17;1.75;;;22.50;79.30;;;;;;2049435;28;20034;-73
2021/08/07 05:10:43;;;;;;;2.08;1.80;;;22.60;78.90;;;;;;2042121;28;20028;-75
2021/08/07 05:11:45;;;;;;;1.80;1.70;;;22.70;78.80;;;;;;2043472;28;20027;-75
2021/08/07 05:12:46;;;;;;;3.65;1.85;;;22.80;77.50;;;;;;2049392;28;20078;-73
2021/08/07 05:13:46;;;;;;;2.30;1.80;;;22.90;76.10;;;;;;2049072;28;20027;-75
2021/08/07 05:14:50;;;;;;;3.00;1.60;;;22.90;75.40;;;;;;2049141;28;20023;-75
2021/08/07 05:15:53;;;;;;;2.88;1.70;;;22.90;75.10;;;;;;2056932;28;20478;-75
2021/08/07 05:16:53;;;;;;;2.08;1.60;;;22.90;75.40;;;;;;2056898;28;20034;-75
2021/08/07 05:17:55;;;;;;;2.75;1.70;;;23.00;76.30;;;;;;2049060;28;20058;-74
2021/08/07 05:18:59;;;;;;;2.28;1.40;;;23.00;74.80;;;;;;2049011;28;20015;-74
2021/08/07 05:20:04;;;;;;;1.55;1.42;;;23.10;74.70;;;;;;2048971;28;20478;-75
2021/08/07 05:21:08;;;;;;;1.77;1.63;;;23.00;74.70;;;;;;2048897;28;20031;-74
2021/08/07 05:22:13;;;;;;;1.85;1.60;;;22.90;74.60;;;;;;2049176;28;20019;-76
2021/08/07 05:23:17;;;;;;;1.70;1.60;;;22.80;75.10;;;;;;2049214;28;20031;-75
2021/08/07 05:24:18;;;;;;;3.40;1.77;;;22.60;75.90;;;;;;2049344;28;20430;-74
2021/08/07 05:25:21;;;;;;;1.92;1.50;;;22.60;76.70;;;;;;2057094;28;20482;-75
2021/08/07 05:26:23;;;;;;;2.03;1.63;;;22.60;77.20;;;;;;2056701;28;20026;-75
2021/08/07 05:27:24;;;;;;;3.30;1.50;;;22.70;77.00;;;;;;2048855;28;20066;-74
2021/08/07 05:28:25;;;;;;;1.90;1.60;;;22.80;75.50;;;;;;2064794;28;20446;-75
2021/08/07 05:29:26;;;;;;;2.15;1.63;;;22.90;74.50;;;;;;2056786;28;20058;-75
2021/08/07 05:30:26;;;;;;;2.00;1.65;;;22.80;73.00;;;;;;2056541;28;20101;-75
2021/08/07 05:31:30;;;;;;;2.75;1.70;;;22.90;73.40;;;;;;2056735;28;20164;-75
2021/08/07 05:32:31;;;;;;;2.38;1.63;;;22.90;72.60;;;;;;2048920;29;20438;-75
2021/08/07 05:33:32;;;;;;;5.38;1.80;;;22.80;72.20;;;;;;2056871;28;20042;-74
2021/08/07 05:34:33;;;;;;;3.15;1.60;;;22.90;72.20;;;;;;2056774;28;20077;-76
2021/08/07 05:35:34;;;;;;;3.63;1.67;;;22.90;71.90;;;;;;2049006;29;20031;-75